Time;durP1;ratioP1;P1;durP2;ratioP2;P2;SDS_P1;SDS_P2;PMS_P1;PMS_P2;Temp;Humidity;BMP_temperature;BMP_pressure;BME280_temperature;BME280_humidity;BME280_pressure;Samples;Min_cycle;Max_cycle;Signal;HPM_P1;HPM_P2
2021/04/11 00:02:16;;;;;;;2.08;1.55;;;;;;;;;;5082539;28;32079;-73
2021/04/11 00:04:42;;;;;;;1.70;1.40;;;;;;;;;;5082292;28;32934;-73
2021/04/11 00:07:07;;;;;;;1.48;1.38;;;;;;;;;;5081163;28;32650;-73
2021/04/11 00:09:33;;;;;;;2.10;1.80;;;;;;;;;;5082005;28;32436;-73
2021/04/11 00:11:59;;;;;;;2.17;1.48;;;;;;;;;;5082413;28;31845;-74
2021/04/11 00:14:24;;;;;;;1.88;1.30;;;;;;;;;;5082362;28;31920;-73
2021/04/11 00:16:51;;;;;;;1.92;1.70;;;;;;;;;;5082122;28;33555;-73
2021/04/11 00:19:17;;;;;;;1.70;1.50;;;;;;;;;;5081956;28;32961;-73
2021/04/11 00:21:43;;;;;;;2.92;1.52;;;;;;;;;;5082114;28;31908;-73
2021/04/11 00:24:08;;;;;;;1.45;1.20;;;;;;;;;;5081647;28;32522;-74
2021/04/11 00:26:34;;;;;;;1.95;1.75;;;;;;;;;;5081713;28;32459;-74
2021/04/11 00:29:00;;;;;;;2.08;1.70;;;;;;;;;;5081857;28;33183;-74
2021/04/11 00:31:25;;;;;;;1.73;1.40;;;;;;;;;;5081948;28;31800;-74
2021/04/11 00:33:51;;;;;;;1.95;1.60;;;;;;;;;;5082132;28;32602;-73
2021/04/11 00:36:18;;;;;;;2.70;2.15;;;;;;;;;;5082007;28;32426;-74
2021/04/11 00:38:44;;;;;;;2.75;1.75;;;;;;;;;;5081851;28;32228;-74
2021/04/11 00:41:15;;;;;;;1.60;1.50;;;;;;;;;;5081811;28;31942;-73
2021/04/11 00:43:41;;;;;;;1.67;1.58;;;;;;;;;;5081804;28;32556;-74
2021/04/11 00:46:13;;;;;;;3.47;1.70;;;;;;;;;;5081880;28;33628;-74
2021/04/11 00:48:38;;;;;;;1.75;1.58;;;;;;;;;;5081265;28;32279;-74
2021/04/11 00:51:07;;;;;;;1.55;1.33;;;;;;;;;;5080387;28;30401;-74
2021/04/11 00:53:32;;;;;;;2.35;1.73;;;;;;;;;;5080083;28;35189;-74
2021/04/11 00:55:59;;;;;;;4.53;1.42;;;;;;;;;;5081659;28;31721;-74
2021/04/11 00:58:27;;;;;;;1.80;1.52;;;;;;;;;;5079477;28;30845;-73
2021/04/11 01:00:54;;;;;;;1.50;1.40;;;;;;;;;;5079965;28;30425;-74
2021/04/11 01:03:23;;;;;;;1.90;1.70;;;;;;;;;;5081472;28;32261;-74
2021/04/11 01:05:49;;;;;;;3.28;1.90;;;;;;;;;;5080041;28;31076;-74
2021/04/11 01:08:18;;;;;;;1.90;1.70;;;;;;;;;;5081529;28;33151;-74
2021/04/11 01:10:49;;;;;;;2.00;1.80;;;;;;;;;;5081104;28;32890;-74
2021/04/11 01:13:16;;;;;;;2.13;1.80;;;;;;;;;;5078462;28;32954;-74
2021/04/11 01:15:42;;;;;;;3.70;2.83;;;;;;;;;;5081262;28;32676;-73
2021/04/11 01:18:08;;;;;;;3.17;2.17;;;;;;;;;;5079788;28;32053;-74
2021/04/11 01:20:34;;;;;;;2.22;1.77;;;;;;;;;;5079847;28;31648;-73
2021/04/11 01:23:24;;;;;;;1.80;1.60;;;;;;;;;;5079817;28;30784;-74
2021/04/11 01:25:50;;;;;;;2.25;2.05;;;;;;;;;;5080936;28;32628;-72
2021/04/11 01:28:21;;;;;;;2.58;2.33;;;;;;;;;;5081030;28;32299;-73
2021/04/11 01:30:48;;;;;;;4.32;1.95;;;;;;;;;;5079531;28;30422;-73
2021/04/11 01:33:16;;;;;;;2.92;2.55;;;;;;;;;;5080082;28;31719;-73
2021/04/11 01:35:42;;;;;;;2.15;1.95;;;;;;;;;;5080818;28;32767;-73
2021/04/11 01:38:09;;;;;;;2.88;2.53;;;;;;;;;;5080958;28;33140;-73
2021/04/11 01:40:41;;;;;;;2.63;2.08;;;;;;;;;;5079562;28;30514;-71
2021/04/11 01:43:10;;;;;;;2.92;2.28;;;;;;;;;;5078226;28;32133;-71
2021/04/11 01:45:37;;;;;;;2.75;2.45;;;;;;;;;;5079849;28;31404;-72
2021/04/11 01:48:05;;;;;;;3.22;2.92;;;;;;;;;;5079541;28;30784;-73
2021/04/11 01:50:31;;;;;;;3.85;3.30;;;;;;;;;;5079492;28;30386;-72
2021/04/11 01:52:58;;;;;;;5.15;4.10;;;;;;;;;;5079318;28;31899;-72
2021/04/11 01:55:25;;;;;;;5.47;4.53;;;;;;;;;;5079439;28;31090;-72
2021/04/11 01:57:53;;;;;;;5.38;4.88;;;;;;;;;;5080615;28;33220;-72
2021/04/11 02:00:39;;;;;;;6.03;5.43;;;;;;;;;;5079331;28;31595;-71
2021/04/11 02:03:16;;;;;;;5.75;5.15;;;;;;;;;;5074790;28;30582;-72
2021/04/11 02:05:43;;;;;;;8.27;5.00;;;;;;;;;;5079192;28;31562;-71
2021/04/11 02:08:11;;;;;;;5.10;4.60;;;;;;;;;;5080431;28;32266;-72
2021/04/11 02:10:45;;;;;;;5.47;3.97;;;;;;;;;;5081092;28;31856;-71
2021/04/11 02:13:23;;;;;;;4.05;3.65;;;;;;;;;;5082871;28;31176;-71
2021/04/11 02:15:51;;;;;;;4.45;3.90;;;;;;;;;;5082445;28;32384;-74
2021/04/11 02:18:18;;;;;;;4.20;3.80;;;;;;;;;;5065876;28;31419;-74
2021/04/11 02:20:46;;;;;;;4.53;3.90;;;;;;;;;;5083905;28;32018;-74
2021/04/11 02:23:15;;;;;;;6.25;3.90;;;;;;;;;;5082228;28;31192;-76
2021/04/11 02:25:43;;;;;;;4.95;4.45;;;;;;;;;;5083740;28;33613;-75
2021/04/11 02:28:10;;;;;;;7.00;5.85;;;;;;;;;;5083733;28;32396;-75
2021/04/11 02:30:37;;;;;;;6.57;5.88;;;;;;;;;;5082529;28;31603;-75
2021/04/11 02:33:05;;;;;;;7.28;5.97;;;;;;;;;;5082014;28;30609;-73
2021/04/11 02:35:31;;;;;;;7.15;6.45;;;;;;;;;;5082359;28;31563;-73
2021/04/11 02:38:01;;;;;;;7.43;6.50;;;;;;;;;;5082456;28;30649;-74
2021/04/11 02:40:32;;;;;;;8.48;7.20;;;;;;;;;;5082167;28;31512;-74
2021/04/11 02:43:01;;;;;;;8.05;6.53;;;;;;;;;;5082340;28;30397;-74
2021/04/11 02:45:30;;;;;;;7.93;6.63;;;;;;;;;;5082525;28;31155;-74
2021/04/11 02:48:00;;;;;;;7.63;6.53;;;;;;;;;;5080884;28;32369;-74
2021/04/11 02:50:28;;;;;;;9.50;6.82;;;;;;;;;;5082201;28;30847;-74
2021/04/11 02:53:01;;;;;;;6.97;5.93;;;;;;;;;;5082357;28;32152;-74
2021/04/11 02:55:29;;;;;;;8.90;6.93;;;;;;;;;;5080716;28;33449;-74
2021/04/11 02:57:56;;;;;;;8.35;7.20;;;;;;;;;;5081836;28;30805;-74
2021/04/11 03:00:25;;;;;;;8.45;7.00;;;;;;;;;;5081975;28;31524;-74
2021/04/11 03:02:51;;;;;;;8.13;6.93;;;;;;;;;;5082075;28;30674;-74
2021/04/11 03:05:19;;;;;;;9.52;7.18;;;;;;;;;;5083276;28;32591;-74
2021/04/11 03:07:47;;;;;;;8.68;7.20;;;;;;;;;;5081844;28;30846;-74
2021/04/11 03:10:22;;;;;;;9.75;7.82;;;;;;;;;;5082085;28;31419;-73
2021/04/11 03:12:50;;;;;;;8.70;7.45;;;;;;;;;;5081730;28;30597;-74
2021/04/11 03:15:16;;;;;;;9.52;7.88;;;;;;;;;;5082953;28;32732;-75
2021/04/11 03:17:44;;;;;;;9.27;7.57;;;;;;;;;;5082246;28;30618;-73
2021/04/11 03:20:17;;;;;;;7.57;6.78;;;;;;;;;;5081774;28;30450;-75
2021/04/11 03:22:56;;;;;;;9.45;7.15;;;;;;;;;;5081310;28;30781;-75
2021/04/11 03:25:23;;;;;;;7.75;6.55;;;;;;;;;;5081488;28;30961;-74
2021/04/11 03:27:53;;;;;;;9.88;6.45;;;;;;;;;;5082401;28;33052;-74
2021/04/11 03:30:23;;;;;;;6.03;5.38;;;;;;;;;;5081270;28;30527;-72
2021/04/11 03:32:54;;;;;;;7.57;5.65;;;;;;;;;;5081485;28;30678;-71
2021/04/11 03:35:24;;;;;;;6.55;5.60;;;;;;;;;;5081505;28;31240;-72
2021/04/11 03:37:53;;;;;;;6.57;5.97;;;;;;;;;;5082789;28;31752;-72
2021/04/11 03:40:24;;;;;;;7.10;5.85;;;;;;;;;;5082291;28;31914;-72
2021/04/11 03:42:51;;;;;;;5.72;5.13;;;;;;;;;;5064699;28;30560;-71
2021/04/11 03:45:20;;;;;;;5.90;5.30;;;;;;;;;;5081279;28;32481;-72
2021/04/11 03:48:14;;;;;;;5.85;4.70;;;;;;;;;;5081523;28;30915;-72
2021/04/11 03:50:47;;;;;;;5.70;3.95;;;;;;;;;;5080170;28;31912;-72
2021/04/11 03:53:18;;;;;;;3.65;3.33;;;;;;;;;;5082396;28;32145;-72
2021/04/11 03:55:49;;;;;;;5.47;3.72;;;;;;;;;;5080967;28;31059;-72
2021/04/11 03:58:26;;;;;;;4.28;3.40;;;;;;;;;;5081115;28;31790;-71
2021/04/11 04:01:01;;;;;;;4.70;3.45;;;;;;;;;;5081140;28;30570;-71
2021/04/11 04:03:31;;;;;;;3.40;3.10;;;;;;;;;;5081106;28;31529;-72
2021/04/11 04:06:04;;;;;;;4.78;2.92;;;;;;;;;;5080975;28;31010;-72
2021/04/11 04:08:30;;;;;;;4.32;3.22;;;;;;;;;;5080369;28;31029;-72
2021/04/11 04:11:09;;;;;;;3.33;3.03;;;;;;;;;;5081255;28;30791;-72
2021/04/11 04:13:42;;;;;;;4.90;3.13;;;;;;;;;;5081010;28;31003;-74
2021/04/11 04:16:17;;;;;;;6.15;3.25;;;;;;;;;;5080837;28;31127;-75
2021/04/11 04:19:12;;;;;;;3.28;2.90;;;;;;;;;;5080378;28;31279;-74
2021/04/11 04:21:39;;;;;;;3.90;3.08;;;;;;;;;;5080821;28;30750;-74
2021/04/11 04:24:15;;;;;;;4.45;3.00;;;;;;;;;;5080674;28;30791;-74
2021/04/11 04:27:01;;;;;;;3.90;2.97;;;;;;;;;;5081459;28;32626;-75
2021/04/11 04:29:44;;;;;;;2.88;2.45;;;;;;;;;;5080497;28;30737;-75
2021/04/11 04:32:30;;;;;;;3.63;2.40;;;;;;;;;;5080549;28;30790;-74
2021/04/11 04:35:06;;;;;;;5.20;3.00;;;;;;;;;;5079668;28;30681;-74
2021/04/11 04:37:37;;;;;;;5.10;2.97;;;;;;;;;;5080548;28;31119;-73
2021/04/11 04:40:13;;;;;;;2.95;2.65;;;;;;;;;;5080377;28;30654;-74
2021/04/11 04:42:50;;;;;;;7.50;2.90;;;;;;;;;;5080972;28;31504;-74
2021/04/11 04:45:37;;;;;;;4.40;2.42;;;;;;;;;;5080242;28;31707;-74
2021/04/11 04:48:18;;;;;;;3.17;2.10;;;;;;;;;;5080396;28;32494;-73
2021/04/11 04:50:50;;;;;;;3.17;2.70;;;;;;;;;;5080308;28;31901;-74
2021/04/11 04:53:27;;;;;;;3.83;2.47;;;;;;;;;;5079547;28;35632;-74
2021/04/11 04:55:58;;;;;;;5.63;2.80;;;;;;;;;;5080308;28;30519;-73
2021/04/11 04:58:27;;;;;;;4.72;2.70;;;;;;;;;;5079972;28;32568;-74
2021/04/11 05:01:07;;;;;;;4.47;3.00;;;;;;;;;;5081640;28;33168;-74
2021/04/11 05:03:37;;;;;;;;;;;;;;;;;;5082003;28;30719;-74
2021/04/11 05:06:26;;;;;;;4.47;3.15;;;;;;;;;;5081670;28;32483;-74
2021/04/11 05:09:21;;;;;;;3.58;3.03;;;;;;;;;;5080297;28;32919;-73
2021/04/11 05:12:00;;;;;;;4.25;3.00;;;;;;;;;;5079795;28;31629;-73
2021/04/11 05:14:30;;;;;;;3.72;3.10;;;;;;;;;;5080041;28;32007;-73
2021/04/11 05:17:20;;;;;;;5.00;3.22;;;;;;;;;;5080001;28;31013;-73
2021/04/11 05:19:49;;;;;;;5.13;2.75;;;;;;;;;;5079916;28;30915;-73
2021/04/11 05:22:39;;;;;;;5.63;2.50;;;;;;;;;;5079596;28;31181;-73
2021/04/11 05:25:13;;;;;;;3.45;2.00;;;;;;;;;;5079886;28;30418;-71
2021/04/11 05:27:46;;;;;;;5.15;2.00;;;;;;;;;;5079844;28;30942;-71
2021/04/11 05:30:31;;;;;;;4.95;2.20;;;;;;;;;;5079387;28;31071;-71
2021/04/11 05:32:57;;;;;;;4.95;2.45;;;;;;;;;;5080932;28;32319;-72
2021/04/11 05:35:23;;;;;;;3.97;2.50;;;;;;;;;;5080711;28;32009;-72
2021/04/11 05:38:08;;;;;;;4.43;2.33;;;;;;;;;;5081118;28;33023;-71
2021/04/11 05:40:35;;;;;;;7.32;2.40;;;;;;;;;;5080930;28;33568;-74
2021/04/11 05:43:07;;;;;;;3.47;2.65;;;;;;;;;;5079328;28;30585;-71
2021/04/11 05:45:37;;;;;;;5.97;2.28;;;;;;;;;;5082116;28;31977;-73
2021/04/11 05:48:21;;;;;;;3.17;2.40;;;;;;;;;;5084408;28;32051;-74
2021/04/11 05:51:00;;;;;;;8.93;2.50;;;;;;;;;;5084519;28;33572;-72
2021/04/11 05:53:35;;;;;;;4.88;2.10;;;;;;;;;;5083859;28;33112;-71
2021/04/11 05:56:03;;;;;;;4.10;2.15;;;;;;;;;;5084581;28;32576;-71
2021/04/11 05:58:36;;;;;;;4.43;2.40;;;;;;;;;;5084042;28;32072;-72
2021/04/11 06:01:02;;;;;;;5.88;2.20;;;;;;;;;;5084347;28;33180;-71
2021/04/11 06:03:28;;;;;;;4.68;2.35;;;;;;;;;;5084150;28;32736;-71
2021/04/11 06:06:02;;;;;;;4.25;2.50;;;;;;;;;;5084019;28;31988;-71
2021/04/11 06:08:31;;;;;;;6.85;2.65;;;;;;;;;;5083722;28;32299;-71
2021/04/11 06:11:02;;;;;;;7.32;2.75;;;;;;;;;;5084001;28;32747;-71
2021/04/11 06:13:33;;;;;;;3.47;2.30;;;;;;;;;;5084251;28;33086;-71
2021/04/11 06:16:02;;;;;;;5.03;2.42;;;;;;;;;;5081294;28;31963;-71
2021/04/11 06:18:28;;;;;;;5.85;2.60;;;;;;;;;;5083864;28;32141;-70
2021/04/11 06:20:54;;;;;;;4.45;2.28;;;;;;;;;;5083861;28;32533;-70
2021/04/11 06:23:23;;;;;;;9.55;2.47;;;;;;;;;;5084048;28;32381;-71
2021/04/11 06:25:50;;;;;;;4.70;2.13;;;;;;;;;;5082587;28;32290;-71
2021/04/11 06:28:31;;;;;;;4.78;2.30;;;;;;;;;;5081560;28;32187;-73
2021/04/11 06:30:59;;;;;;;5.05;2.78;;;;;;;;;;5083472;28;32618;-72
2021/04/11 06:33:26;;;;;;;7.30;2.10;;;;;;;;;;5083895;28;33201;-73
2021/04/11 06:36:00;;;;;;;7.40;2.10;;;;;;;;;;5082664;28;31871;-73
2021/04/11 06:38:25;;;;;;;;;;;;;;;;;;5084777;28;36031;-72
2021/04/11 06:41:16;;;;;;;5.05;2.05;;;;;;;;;;5083762;28;32835;-74
2021/04/11 06:44:00;;;;;;;5.93;2.78;;;;;;;;;;5083556;28;33263;-74
2021/04/11 06:46:44;;;;;;;6.25;1.95;;;;;;;;;;5083832;28;32480;-74
2021/04/11 06:49:30;;;;;;;6.05;1.50;;;;;;;;;;5082247;28;31769;-74
2021/04/11 06:52:08;;;;;;;2.78;1.58;;;;;;;;;;5080904;28;32482;-74
2021/04/11 06:54:36;;;;;;;4.80;1.60;;;;;;;;;;5083219;28;32184;-75
2021/04/11 06:57:20;;;;;;;4.95;1.73;;;;;;;;;;5082689;28;32068;-74
2021/04/11 06:59:46;;;;;;;;;;;;;;;;;;5084700;28;32078;-75
2021/04/11 07:02:27;;;;;;;7.20;1.92;;;;;;;;;;5083293;28;33890;-73
2021/04/11 07:04:52;;;;;;;2.83;1.23;;;;;;;;;;5080829;28;32273;-73
2021/04/11 07:07:37;;;;;;;2.85;1.40;;;;;;;;;;5083669;28;31903;-73
2021/04/11 07:10:11;;;;;;;4.65;1.20;;;;;;;;;;5083358;28;32048;-74
2021/04/11 07:12:55;;;;;;;4.78;1.45;;;;;;;;;;5082736;28;32697;-74
2021/04/11 07:15:21;;;;;;;3.83;1.23;;;;;;;;;;5083206;28;32238;-73
2021/04/11 07:18:05;;;;;;;4.22;1.25;;;;;;;;;;5083078;28;32005;-73
2021/04/11 07:20:50;;;;;;;7.10;1.08;;;;;;;;;;5082710;28;32060;-78
2021/04/11 07:23:54;;;;;;;6.28;1.45;;;;;;;;;;5083149;28;33057;-72
2021/04/11 07:26:22;;;;;;;3.72;1.23;;;;;;;;;;5079430;28;37317;-70
2021/04/11 07:28:58;;;;;;;6.45;1.40;;;;;;;;;;5080838;28;31860;-71
2021/04/11 07:31:42;;;;;;;2.95;1.23;;;;;;;;;;5080692;28;31976;-71
2021/04/11 07:34:26;;;;;;;6.00;1.20;;;;;;;;;;5082680;28;32612;-70
2021/04/11 07:37:01;;;;;;;7.18;0.93;;;;;;;;;;5082727;28;32390;-72
2021/04/11 07:39:29;;;;;;;7.50;1.33;;;;;;;;;;5082316;28;32782;-74
2021/04/11 07:42:24;;;;;;;5.63;1.30;;;;;;;;;;5082446;28;33031;-74
2021/04/11 07:44:53;;;;;;;6.38;1.30;;;;;;;;;;5080557;28;32473;-73
2021/04/11 07:47:37;;;;;;;9.50;1.48;;;;;;;;;;5081990;28;32240;-72
2021/04/11 07:50:02;;;;;;;;;;;;;;;;;;5084086;28;31741;-71
2021/04/11 07:52:32;;;;;;;5.60;1.23;;;;;;;;;;5080955;28;32493;-71
2021/04/11 07:55:17;;;;;;;3.42;1.27;;;;;;;;;;5081927;28;32635;-71
2021/04/11 07:57:49;;;;;;;5.05;1.40;;;;;;;;;;5079783;28;32859;-72
2021/04/11 08:00:26;;;;;;;8.00;1.27;;;;;;;;;;5081299;28;32433;-72
2021/04/11 08:02:52;;;;;;;8.00;1.10;;;;;;;;;;5082003;28;32379;-72
2021/04/11 08:05:26;;;;;;;4.15;1.25;;;;;;;;;;5081954;28;32491;-72
2021/04/11 08:08:01;;;;;;;6.65;0.90;;;;;;;;;;5078840;28;31971;-72
2021/04/11 08:10:45;;;;;;;5.00;0.90;;;;;;;;;;5081367;28;31828;-72
2021/04/11 08:13:16;;;;;;;3.88;1.08;;;;;;;;;;5082130;28;33223;-71
2021/04/11 08:16:11;;;;;;;15.80;1.23;;;;;;;;;;5082174;28;33597;-71
2021/04/11 08:18:46;;;;;;;6.05;1.27;;;;;;;;;;5075342;28;32356;-75
2021/04/11 08:21:21;;;;;;;7.78;1.13;;;;;;;;;;5080652;28;30502;-73
2021/04/11 08:23:59;;;;;;;5.15;1.00;;;;;;;;;;5081871;28;33001;-73
2021/04/11 08:26:37;;;;;;;8.52;2.03;;;;;;;;;;5081865;28;38202;-73
2021/04/11 08:29:02;;;;;;;3.65;1.00;;;;;;;;;;5080766;28;30869;-73
2021/04/11 08:31:46;;;;;;;4.82;0.85;;;;;;;;;;5082107;28;32016;-73
2021/04/11 08:34:33;;;;;;;2.55;0.63;;;;;;;;;;5082076;28;31779;-73
2021/04/11 08:37:18;;;;;;;2.70;0.85;;;;;;;;;;5081830;28;32529;-73
2021/04/11 08:39:46;;;;;;;7.32;1.35;;;;;;;;;;5081658;28;32187;-73
2021/04/11 08:42:21;;;;;;;6.00;1.17;;;;;;;;;;5082566;28;31946;-73
2021/04/11 08:45:05;;;;;;;3.40;0.93;;;;;;;;;;5084213;28;32118;-73
2021/04/11 08:47:45;;;;;;;3.95;0.98;;;;;;;;;;5080454;28;31024;-73
2021/04/11 08:50:36;;;;;;;3.28;1.30;;;;;;;;;;5081674;28;33209;-73
2021/04/11 08:53:08;;;;;;;8.70;1.35;;;;;;;;;;5080060;28;31951;-72
2021/04/11 08:55:40;;;;;;;6.70;1.20;;;;;;;;;;5081914;28;32973;-72
2021/04/11 08:58:12;;;;;;;6.72;1.70;;;;;;;;;;5078861;28;33500;-71
2021/04/11 09:00:37;;;;;;;7.53;1.00;;;;;;;;;;5081020;28;32198;-72
2021/04/11 09:03:21;;;;;;;3.83;0.98;;;;;;;;;;5081129;28;31866;-71
2021/04/11 09:05:47;;;;;;;;;;;;;;;;;;5079700;28;32155;-72
2021/04/11 09:08:15;;;;;;;12.50;1.63;;;;;;;;;;5081670;28;33243;-72
2021/04/11 09:10:46;;;;;;;8.02;1.35;;;;;;;;;;5081454;28;32259;-72
2021/04/11 09:13:31;;;;;;;4.53;1.02;;;;;;;;;;5081286;28;31807;-72
2021/04/11 09:15:56;;;;;;;;;;;;;;;;;;5082828;28;31928;-72
2021/04/11 09:18:40;;;;;;;8.73;2.05;;;;;;;;;;5080860;28;33806;-72
2021/04/11 09:21:24;;;;;;;1.83;0.55;;;;;;;;;;5079397;28;31480;-72
2021/04/11 09:23:50;;;;;;;;;;;;;;;;;;5082253;28;31930;-72
2021/04/11 09:26:26;;;;;;;9.20;1.17;;;;;;;;;;5079102;28;32278;-72
2021/04/11 09:28:55;;;;;;;2.95;0.77;;;;;;;;;;5080141;28;31053;-70
2021/04/11 09:31:31;;;;;;;5.38;0.75;;;;;;;;;;5081491;28;32350;-71
2021/04/11 09:34:05;;;;;;;5.75;0.88;;;;;;;;;;5079765;28;30772;-71
2021/04/11 09:36:31;;;;;;;5.90;1.00;;;;;;;;;;5080979;28;33059;-71
2021/04/11 09:39:15;;;;;;;12.65;1.10;;;;;;;;;;5080891;28;32688;-71
2021/04/11 09:41:41;;;;;;;6.72;0.60;;;;;;;;;;5080864;28;33011;-71
2021/04/11 09:44:19;;;;;;;7.10;1.25;;;;;;;;;;5078275;28;32532;-71
2021/04/11 09:46:44;;;;;;;3.38;0.88;;;;;;;;;;5081120;28;32059;-70
2021/04/11 09:49:28;;;;;;;5.95;0.98;;;;;;;;;;5080523;28;33673;-70
2021/04/11 09:52:06;;;;;;;2.97;1.00;;;;;;;;;;5080950;28;33174;-72
2021/04/11 09:54:45;;;;;;;4.65;0.80;;;;;;;;;;5080714;28;32968;-72
2021/04/11 09:57:11;;;;;;;1.70;0.60;;;;;;;;;;5080638;28;32022;-70
2021/04/11 09:59:45;;;;;;;3.55;1.10;;;;;;;;;;5080557;28;32398;-71
2021/04/11 10:02:20;;;;;;;6.22;1.35;;;;;;;;;;5077691;28;32306;-70
2021/04/11 10:05:02;;;;;;;1.75;1.00;;;;;;;;;;5082647;28;32718;-70
2021/04/11 10:07:40;;;;;;;6.85;1.40;;;;;;;;;;5077959;28;32139;-70
2021/04/11 10:10:06;;;;;;;4.70;1.15;;;;;;;;;;5080383;28;33642;-71
2021/04/11 10:12:38;;;;;;;2.25;0.95;;;;;;;;;;5080663;28;33128;-70
2021/04/11 10:15:10;;;;;;;3.58;1.02;;;;;;;;;;5078039;28;31916;-70
2021/04/11 10:17:56;;;;;;;7.57;1.27;;;;;;;;;;5080349;28;31979;-70
2021/04/11 10:20:30;;;;;;;3.10;1.05;;;;;;;;;;5078182;28;32499;-71
2021/04/11 10:23:02;;;;;;;5.70;1.55;;;;;;;;;;5080242;28;33275;-71
2021/04/11 10:25:27;;;;;;;5.78;1.25;;;;;;;;;;5080426;28;31844;-72
2021/04/11 10:27:59;;;;;;;2.55;1.00;;;;;;;;;;5079684;28;32170;-71
2021/04/11 10:30:26;;;;;;;5.13;1.05;;;;;;;;;;5080361;28;33650;-71
2021/04/11 10:33:10;;;;;;;6.65;1.33;;;;;;;;;;5082237;28;32807;-72
2021/04/11 10:35:41;;;;;;;4.50;1.15;;;;;;;;;;5081239;28;31916;-70
2021/04/11 10:38:27;;;;;;;2.60;0.90;;;;;;;;;;5080899;28;32152;-70
2021/04/11 10:40:52;;;;;;;3.33;1.10;;;;;;;;;;5082998;28;32503;-70
2021/04/11 10:43:24;;;;;;;4.55;0.82;;;;;;;;;;5083763;28;36790;-71
2021/04/11 10:45:53;;;;;;;3.95;1.17;;;;;;;;;;5083897;28;31986;-70
2021/04/11 10:48:42;;;;;;;1.92;1.13;;;;;;;;;;5084188;28;32895;-71
2021/04/11 10:51:27;;;;;;;5.45;1.20;;;;;;;;;;5080776;28;32671;-70
2021/04/11 10:54:11;;;;;;;6.82;2.60;;;;;;;;;;5083250;28;32842;-72
2021/04/11 10:56:49;;;;;;;11.63;2.03;;;;;;;;;;5083586;28;31951;-73
2021/04/11 10:59:23;;;;;;;4.15;1.73;;;;;;;;;;5083373;28;36789;-72
2021/04/11 11:02:04;;;;;;;4.82;1.20;;;;;;;;;;5081775;28;31245;-72
2021/04/11 11:04:49;;;;;;;7.93;1.98;;;;;;;;;;5083174;28;32316;-72
2021/04/11 11:07:30;;;;;;;7.63;2.20;;;;;;;;;;5083428;28;32024;-72
2021/04/11 11:10:07;;;;;;;9.60;1.70;;;;;;;;;;5080568;28;32009;-71
2021/04/11 11:12:41;;;;;;;5.97;1.35;;;;;;;;;;5080563;28;32703;-71
2021/04/11 11:15:22;;;;;;;5.28;1.20;;;;;;;;;;5082766;28;33200;-72
2021/04/11 11:18:09;;;;;;;5.20;1.27;;;;;;;;;;5080411;28;31885;-71
2021/04/11 11:20:48;;;;;;;5.40;2.10;;;;;;;;;;5083004;28;31965;-71
2021/04/11 11:23:14;;;;;;;11.02;2.10;;;;;;;;;;5064458;28;36305;-73
2021/04/11 11:25:39;;;;;;;3.08;0.70;;;;;;;;;;5080170;28;32207;-72
2021/04/11 11:28:17;;;;;;;3.95;1.05;;;;;;;;;;5082518;28;32955;-71
2021/04/11 11:31:02;;;;;;;5.10;0.90;;;;;;;;;;5082970;28;32206;-72
2021/04/11 11:33:46;;;;;;;1.23;0.80;;;;;;;;;;5082979;28;33616;-72
2021/04/11 11:36:20;;;;;;;3.97;1.23;;;;;;;;;;5082839;28;31245;-72
2021/04/11 11:38:53;;;;;;;5.55;0.90;;;;;;;;;;5082090;28;32873;-71
2021/04/11 11:41:24;;;;;;;6.55;1.23;;;;;;;;;;5082143;28;32001;-72
2021/04/11 11:43:56;;;;;;;9.85;0.90;;;;;;;;;;5082358;28;33511;-72
2021/04/11 11:46:28;;;;;;;6.25;1.20;;;;;;;;;;5080072;28;33188;-72
2021/04/11 11:49:12;;;;;;;3.05;1.08;;;;;;;;;;5082642;28;32866;-72
2021/04/11 11:51:42;;;;;;;3.72;1.23;;;;;;;;;;5082587;28;33052;-72
2021/04/11 11:54:26;;;;;;;3.40;0.95;;;;;;;;;;5081225;28;32431;-71
2021/04/11 11:56:52;;;;;;;3.50;1.10;;;;;;;;;;5079784;28;33126;-72
2021/04/11 11:59:22;;;;;;;5.07;1.42;;;;;;;;;;5082342;28;31825;-72
2021/04/11 12:01:47;;;;;;;4.88;1.33;;;;;;;;;;5079319;28;31868;-72
2021/04/11 12:04:23;;;;;;;4.07;0.95;;;;;;;;;;5082182;28;32723;-72
2021/04/11 12:06:50;;;;;;;3.15;1.00;;;;;;;;;;5080178;28;32789;-74
2021/04/11 12:09:22;;;;;;;3.47;0.90;;;;;;;;;;5081747;28;30526;-73
2021/04/11 12:12:06;;;;;;;7.25;0.95;;;;;;;;;;5082230;28;32031;-73
2021/04/11 12:14:44;;;;;;;8.75;0.85;;;;;;;;;;5082345;28;33112;-73
2021/04/11 12:17:29;;;;;;;1.83;0.65;;;;;;;;;;5082230;28;33147;-73
2021/04/11 12:19:59;;;;;;;3.90;0.90;;;;;;;;;;5081869;28;32752;-73
2021/04/11 12:22:43;;;;;;;3.45;1.00;;;;;;;;;;5081445;28;32957;-73
2021/04/11 12:25:17;;;;;;;3.95;0.85;;;;;;;;;;5079407;28;32545;-72
2021/04/11 12:27:43;;;;;;;2.83;1.10;;;;;;;;;;5081997;28;32268;-72
2021/04/11 12:30:13;;;;;;;6.20;1.38;;;;;;;;;;5080685;28;30032;-72
2021/04/11 12:32:52;;;;;;;6.38;1.10;;;;;;;;;;5081900;28;31923;-73
2021/04/11 12:35:21;;;;;;;4.03;0.75;;;;;;;;;;5079257;28;32578;-72
2021/04/11 12:37:59;;;;;;;20.25;6.70;;;;;;;;;;5081791;28;32234;-73
2021/04/11 12:40:24;;;;;;;4.75;2.05;;;;;;;;;;5081522;28;32756;-74
2021/04/11 12:42:59;;;;;;;5.90;0.88;;;;;;;;;;5081340;28;33015;-72
2021/04/11 12:45:27;;;;;;;2.60;0.70;;;;;;;;;;5081423;28;33519;-73
2021/04/11 12:48:12;;;;;;;3.88;0.95;;;;;;;;;;5081564;28;32239;-73
2021/04/11 12:51:00;;;;;;;4.00;1.20;;;;;;;;;;5081850;28;31811;-72
2021/04/11 12:53:31;;;;;;;3.97;1.00;;;;;;;;;;5080592;28;32993;-73
2021/04/11 12:56:04;;;;;;;1.80;0.90;;;;;;;;;;5080565;28;32650;-73
2021/04/11 12:58:37;;;;;;;7.18;1.42;;;;;;;;;;5081478;28;32824;-73
2021/04/11 13:01:03;;;;;;;1.98;0.80;;;;;;;;;;5081414;28;31911;-73
2021/04/11 13:03:35;;;;;;;3.70;0.73;;;;;;;;;;5080984;28;32142;-73
2021/04/11 13:06:10;;;;;;;7.28;1.73;;;;;;;;;;5081554;28;32721;-73
2021/04/11 13:08:57;;;;;;;4.45;1.27;;;;;;;;;;5081446;28;33246;-74
2021/04/11 13:11:22;;;;;;;6.65;1.75;;;;;;;;;;5081343;28;32708;-74
2021/04/11 13:13:48;;;;;;;5.00;1.20;;;;;;;;;;5081477;28;32156;-75
2021/04/11 13:16:23;;;;;;;0.50;0.35;;;;;;;;;;5081015;28;32566;-72
2021/04/11 13:18:58;;;;;;;4.70;1.45;;;;;;;;;;5081228;28;33105;-72
2021/04/11 13:21:30;;;;;;;5.63;0.73;;;;;;;;;;5080966;28;31757;-73
2021/04/11 13:23:58;;;;;;;3.85;1.00;;;;;;;;;;5081169;28;32016;-74
2021/04/11 13:26:59;;;;;;;3.80;0.85;;;;;;;;;;5080705;28;37515;-73
2021/04/11 13:29:27;;;;;;;6.78;1.20;;;;;;;;;;5078744;28;32246;-73
2021/04/11 13:31:57;;;;;;;5.90;2.13;;;;;;;;;;5078871;28;33069;-73
2021/04/11 13:34:37;;;;;;;6.72;0.85;;;;;;;;;;5079039;28;32152;-73
2021/04/11 13:37:07;;;;;;;2.78;0.60;;;;;;;;;;5078423;28;33650;-73
2021/04/11 13:39:35;;;;;;;4.18;0.68;;;;;;;;;;5080951;28;32202;-71
2021/04/11 13:42:19;;;;;;;4.05;0.70;;;;;;;;;;5079458;28;30458;-70
2021/04/11 13:44:45;;;;;;;9.32;1.23;;;;;;;;;;5080827;28;31989;-69
2021/04/11 13:47:16;;;;;;;4.00;1.00;;;;;;;;;;5080766;28;33555;-70
2021/04/11 13:49:45;;;;;;;5.85;0.68;;;;;;;;;;5080764;28;33168;-70
2021/04/11 13:52:18;;;;;;;2.90;0.85;;;;;;;;;;5079477;28;30262;-70
2021/04/11 13:55:03;;;;;;;2.38;0.70;;;;;;;;;;5080465;28;33089;-67
2021/04/11 13:57:44;;;;;;;3.25;0.73;;;;;;;;;;5077927;28;32867;-69
2021/04/11 14:00:15;;;;;;;12.55;2.95;;;;;;;;;;5081241;28;32574;-71
2021/04/11 14:02:45;;;;;;;8.57;1.73;;;;;;;;;;5078353;28;32095;-72
2021/04/11 14:05:19;;;;;;;2.53;0.95;;;;;;;;;;5080811;28;33012;-72
2021/04/11 14:07:45;;;;;;;4.30;1.08;;;;;;;;;;5083804;28;40705;-72
2021/04/11 14:10:29;;;;;;;5.45;0.90;;;;;;;;;;5084341;28;33079;-71
2021/04/11 14:13:04;;;;;;;3.50;1.55;;;;;;;;;;5084529;28;31931;-72
2021/04/11 14:15:49;;;;;;;3.20;0.90;;;;;;;;;;5084358;28;32023;-72
2021/04/11 14:18:21;;;;;;;5.22;1.30;;;;;;;;;;5081499;28;32544;-71
2021/04/11 14:20:59;;;;;;;5.32;0.70;;;;;;;;;;5083850;28;32225;-72
2021/04/11 14:23:24;;;;;;;3.53;0.93;;;;;;;;;;5081223;28;32003;-71
2021/04/11 14:26:10;;;;;;;4.43;0.77;;;;;;;;;;5065862;28;30735;-71
2021/04/11 14:28:54;;;;;;;5.38;0.50;;;;;;;;;;5081186;28;32511;-73
2021/04/11 14:31:35;;;;;;;2.80;0.60;;;;;;;;;;5083928;28;32231;-73
2021/04/11 14:34:21;;;;;;;5.15;1.05;;;;;;;;;;5083919;28;31550;-72
2021/04/11 14:36:53;;;;;;;1.52;0.60;;;;;;;;;;5082279;28;31744;-73
2021/04/11 14:39:28;;;;;;;5.03;0.70;;;;;;;;;;5083308;28;33561;-71
2021/04/11 14:42:01;;;;;;;4.68;0.90;;;;;;;;;;5083445;28;32278;-71
2021/04/11 14:44:32;;;;;;;5.63;0.93;;;;;;;;;;5083487;28;31866;-71
2021/04/11 14:46:59;;;;;;;5.13;0.90;;;;;;;;;;5083591;28;32553;-71
2021/04/11 14:49:26;;;;;;;1.45;0.65;;;;;;;;;;5083099;28;32560;-71
2021/04/11 14:51:53;;;;;;;7.18;1.10;;;;;;;;;;5085359;28;32180;-73
2021/04/11 14:54:37;;;;;;;4.90;0.80;;;;;;;;;;5082903;28;31902;-72
2021/04/11 14:57:22;;;;;;;2.33;0.50;;;;;;;;;;5083730;28;32259;-72
2021/04/11 14:59:57;;;;;;;4.20;0.90;;;;;;;;;;5083391;28;33666;-73
2021/04/11 15:02:35;;;;;;;0.95;0.60;;;;;;;;;;5083301;28;32304;-72
2021/04/11 15:05:20;;;;;;;3.90;0.52;;;;;;;;;;5083185;28;31749;-73
2021/04/11 15:08:04;;;;;;;2.20;0.60;;;;;;;;;;5083564;28;31771;-72
2021/04/11 15:10:33;;;;;;;3.72;0.65;;;;;;;;;;5083125;28;32558;-72
2021/04/11 15:13:16;;;;;;;2.85;0.70;;;;;;;;;;5083111;28;32143;-72
2021/04/11 15:16:03;;;;;;;2.17;0.60;;;;;;;;;;5080293;28;31900;-72
2021/04/11 15:18:38;;;;;;;4.47;0.98;;;;;;;;;;5082335;28;30615;-72
2021/04/11 15:21:23;;;;;;;5.90;0.77;;;;;;;;;;5080305;28;32644;-72
2021/04/11 15:23:58;;;;;;;2.70;0.70;;;;;;;;;;5082974;28;32289;-73
2021/04/11 15:26:24;;;;;;;5.10;0.77;;;;;;;;;;5081120;28;32576;-71